Time;durP1;ratioP1;P1;durP2;ratioP2;P2;SDS_P1;SDS_P2;PMS_P1;PMS_P2;Temp;Humidity;BMP_temperature;BMP_pressure;BME280_temperature;BME280_humidity;BME280_pressure;Samples;Min_cycle;Max_cycle;Signal;HPM_P1;HPM_P2
2024/02/22 00:02:35;;;;;;;30.90;16.20;;;;;;;-3.98;100.00;141310.47;106848;1272;25491;-64
2024/02/22 00:05:22;;;;;;;29.20;15.70;;;;;;;-4.00;100.00;141304.78;106875;1275;25387;-70
2024/02/22 00:08:08;;;;;;;26.30;15.40;;;;;;;-4.03;100.00;141298.84;106740;1267;25370;-67
2024/02/22 00:10:53;;;;;;;27.40;16.30;;;;;;;-4.04;100.00;141295.13;106722;1265;25338;-62
2024/02/22 00:13:39;;;;;;;28.80;15.20;;;;;;;-4.07;100.00;141288.42;106738;1264;25449;-66
2024/02/22 00:16:25;;;;;;;25.20;15.10;;;;;;;-4.10;100.00;141281.50;106717;1265;25429;-67
2024/02/22 00:19:11;;;;;;;23.10;13.10;;;;;;;-4.13;100.00;141273.58;106728;1267;25487;-62
2024/02/22 00:21:56;;;;;;;24.90;14.80;;;;;;;-4.16;100.00;141268.13;106771;1263;25366;-68
2024/02/22 00:24:42;;;;;;;21.80;13.30;;;;;;;-4.16;100.00;141266.16;106711;1267;25325;-64
2024/02/22 00:27:28;;;;;;;19.20;12.40;;;;;;;-4.16;100.00;141267.88;106734;1267;25468;-65
2024/02/22 00:30:14;;;;;;;26.40;14.30;;;;;;;-4.14;100.00;141270.86;106746;1264;25418;-67
2024/02/22 00:33:03;;;;;;;23.10;13.40;;;;;;;-4.16;100.00;141267.91;106769;1266;25400;-65
2024/02/22 00:35:50;;;;;;;22.20;12.40;;;;;;;-4.18;100.00;141261.92;106741;1266;25341;-68
2024/02/22 00:38:35;;;;;;;20.90;11.60;;;;;;;-4.16;100.00;141266.64;106712;1267;25369;-70
2024/02/22 00:41:21;;;;;;;20.50;12.40;;;;;;;-4.13;100.00;141273.34;106733;1265;25418;-66
2024/02/22 00:44:08;;;;;;;29.10;15.20;;;;;;;-4.10;100.00;141280.50;106726;1267;25351;-64
2024/02/22 00:46:54;;;;;;;26.40;14.90;;;;;;;-4.07;100.00;141287.94;106716;1264;25463;-67
2024/02/22 00:49:41;;;;;;;28.40;15.50;;;;;;;-4.07;100.00;141287.69;106744;1266;25366;-68
2024/02/22 00:52:28;;;;;;;20.50;13.80;;;;;;;-4.08;100.00;141285.45;106781;1265;25341;-66
2024/02/22 00:55:14;;;;;;;22.10;11.90;;;;;;;-4.09;100.00;141282.98;106736;1266;25370;-67
2024/02/22 00:58:00;;;;;;;20.40;12.20;;;;;;;-4.09;100.00;141283.97;106737;1269;25459;-65
2024/02/22 01:00:45;;;;;;;23.40;13.20;;;;;;;-4.08;100.00;141285.20;106767;1262;25433;-66
2024/02/22 01:03:31;;;;;;;24.00;14.50;;;;;;;-4.07;100.00;141289.17;106747;1267;25366;-62
2024/02/22 01:06:18;;;;;;;22.30;12.60;;;;;;;-4.00;100.00;141306.03;106739;1267;25356;-68
2024/02/22 01:09:03;;;;;;;20.40;12.00;;;;;;;-3.94;100.00;141319.16;106750;1273;25539;-64
2024/02/22 01:11:49;;;;;;;23.80;12.20;;;;;;;-3.90;100.00;141328.30;106726;1265;25370;-61
2024/02/22 01:14:35;;;;;;;19.20;10.70;;;;;;;-3.89;100.00;141331.53;106717;1269;26506;-65
2024/02/22 01:17:21;;;;;;;21.70;12.20;;;;;;;-3.93;100.00;141321.63;106715;1266;25496;-65
2024/02/22 01:20:10;;;;;;;18.80;11.50;;;;;;;-3.96;100.00;141315.17;106692;1267;25418;-61
2024/02/22 01:22:58;;;;;;;16.40;10.40;;;;;;;-3.94;100.00;141321.14;106727;1267;25366;-64
2024/02/22 01:25:44;;;;;;;22.90;12.10;;;;;;;-3.90;100.00;141327.80;106738;1267;24356;-67
2024/02/22 01:28:30;;;;;;;21.20;12.50;;;;;;;-3.88;100.00;141335.00;106747;1264;25418;-62
2024/02/22 01:31:17;;;;;;;23.30;12.40;;;;;;;-3.90;100.00;141330.03;106741;1266;25386;-64
2024/02/22 01:34:02;;;;;;;21.60;12.30;;;;;;;-3.96;100.00;141315.69;106722;1266;25331;-71
2024/02/22 01:36:48;;;;;;;19.20;10.10;;;;;;;-4.01;100.00;141302.30;106735;1267;25357;-68
2024/02/22 01:39:34;;;;;;;17.90;10.60;;;;;;;-4.11;100.00;141277.80;106853;1275;25513;-66
2024/02/22 01:42:20;;;;;;;19.50;11.70;;;;;;;-4.21;100.00;141255.75;106860;1265;25405;-63
2024/02/22 01:45:06;;;;;;;18.20;11.20;;;;;;;-4.21;100.00;141255.25;106907;1266;25350;-66
2024/02/22 01:47:52;;;;;;;22.90;12.60;;;;;;;-4.16;100.00;141267.66;106870;1265;25356;-65
2024/02/22 01:50:40;;;;;;;22.20;13.50;;;;;;;-4.13;100.00;141274.31;106877;1266;25338;-61
2024/02/22 01:53:27;;;;;;;21.50;13.40;;;;;;;-4.12;100.00;141275.58;106855;1265;25366;-67
2024/02/22 01:56:14;;;;;;;20.30;13.30;;;;;;;-4.17;100.00;141264.91;106886;1266;25394;-66
2024/02/22 01:59:00;;;;;;;22.30;13.70;;;;;;;-4.22;100.00;141253.03;106890;1266;25360;-67
2024/02/22 02:01:50;;;;;;;22.50;12.90;;;;;;;-4.33;100.00;141225.78;106657;1267;25389;-67
2024/02/22 02:04:38;;;;;;;23.90;14.30;;;;;;;-4.46;100.00;141194.83;106599;1268;25348;-65
2024/02/22 02:07:26;;;;;;;24.80;14.80;;;;;;;-4.53;100.00;141178.25;106723;1268;25357;-68
2024/02/22 02:10:11;;;;;;;30.50;14.20;;;;;;;-4.53;100.00;141177.50;106814;1269;25360;-66
2024/02/22 02:13:05;;;;;;;22.30;14.10;;;;;;;-4.55;100.00;141170.83;106722;1267;25386;-69
2024/02/22 02:15:50;;;;;;;25.00;13.70;;;;;;;-4.59;100.00;141163.14;106713;1263;25491;-66
2024/02/22 02:18:38;;;;;;;25.70;15.00;;;;;;;-4.57;100.00;141167.34;106727;1267;25351;-68
2024/02/22 02:21:27;;;;;;;22.70;13.60;;;;;;;-4.52;100.00;141177.78;106713;1267;25491;-70
2024/02/22 02:24:29;;;;;;;23.80;14.30;;;;;;;-4.46;100.00;141194.83;106741;1269;25408;-68
2024/02/22 02:27:16;;;;;;;;;;;;;;;-4.39;100.00;141211.16;106752;1266;25316;-63
2024/02/22 02:30:01;;;;;;;22.70;14.20;;;;;;;-4.36;100.00;141218.61;106707;1267;25366;-62
2024/02/22 02:32:47;;;;;;;24.40;14.50;;;;;;;-4.36;100.00;141217.88;106718;1267;25389;-69
2024/02/22 02:35:37;;;;;;;21.90;14.20;;;;;;;-4.40;100.00;141209.69;106720;1267;25415;-68
2024/02/22 02:38:22;;;;;;;23.60;14.10;;;;;;;-4.41;100.00;141206.47;106727;1263;25357;-69
2024/02/22 02:41:08;;;;;;;20.10;13.60;;;;;;;-4.45;100.00;141196.80;106724;1275;27116;-74
2024/02/22 02:43:53;;;;;;;23.20;13.80;;;;;;;-4.48;100.00;141188.16;106720;1264;25366;-66
2024/02/22 02:46:39;;;;;;;22.40;13.80;;;;;;;-4.49;100.00;141184.94;106722;1268;25367;-69
2024/02/22 02:49:25;;;;;;;23.80;13.60;;;;;;;-4.49;100.00;141186.66;106448;1267;25376;-68
2024/02/22 02:52:10;;;;;;;20.90;13.10;;;;;;;-4.50;100.00;141183.20;106406;1267;25328;-66
2024/02/22 02:54:56;;;;;;;21.10;12.80;;;;;;;-4.51;100.00;141180.97;106484;1266;25369;-68
2024/02/22 02:57:41;;;;;;;21.00;13.20;;;;;;;-4.56;100.00;141170.58;106578;1259;25456;-66
2024/02/22 03:00:26;;;;;;;21.60;14.00;;;;;;;-4.58;100.00;141164.63;106633;1267;25322;-68
2024/02/22 03:03:12;;;;;;;25.70;15.70;;;;;;;-4.61;100.00;141159.69;106748;1265;25497;-67
2024/02/22 03:05:58;;;;;;;21.60;13.60;;;;;;;-4.65;100.00;141149.28;106734;1277;25370;-67
2024/02/22 03:08:44;;;;;;;23.60;14.00;;;;;;;-4.65;100.00;141148.55;106586;1268;25367;-68
2024/02/22 03:11:30;;;;;;;20.60;13.50;;;;;;;-4.65;100.00;141147.55;106647;1269;25390;-62
2024/02/22 03:14:16;;;;;;;20.60;13.70;;;;;;;-4.65;100.00;141147.80;106651;1269;25409;-66
2024/02/22 03:17:01;;;;;;;24.40;15.60;;;;;;;-4.69;100.00;141138.39;106831;1259;25491;-64
2024/02/22 03:19:47;;;;;;;24.40;15.40;;;;;;;-4.67;100.00;141143.09;106906;1256;25338;-69
2024/02/22 03:22:32;;;;;;;23.70;15.90;;;;;;;-4.67;100.00;141143.11;106787;1268;25399;-65
2024/02/22 03:25:18;;;;;;;28.00;16.10;;;;;;;-4.68;100.00;141140.13;106773;1269;25395;-65
2024/02/22 03:28:06;;;;;;;24.90;15.00;;;;;;;-4.67;100.00;141144.09;106734;1268;25328;-64
2024/02/22 03:30:52;;;;;;;24.00;15.40;;;;;;;-4.67;100.00;141142.11;106716;1267;25338;-69
2024/02/22 03:33:41;;;;;;;23.70;15.90;;;;;;;-4.67;100.00;141143.59;106712;1267;25370;-64
2024/02/22 03:36:27;;;;;;;25.60;16.90;;;;;;;-4.67;100.00;141143.59;106709;1266;25370;-69
2024/02/22 03:39:12;;;;;;;25.80;17.50;;;;;;;-4.66;100.00;141146.06;106747;1269;25339;-71
2024/02/22 03:41:58;;;;;;;26.50;16.70;;;;;;;-4.66;100.00;141146.58;106757;1272;25391;-65
2024/02/22 03:44:43;;;;;;;29.00;16.60;;;;;;;-4.63;100.00;141153.98;106764;1267;25357;-66
2024/02/22 03:47:29;;;;;;;25.20;16.40;;;;;;;-4.60;100.00;141160.19;106729;1269;25408;-63
2024/02/22 03:50:15;;;;;;;29.40;17.50;;;;;;;-4.58;100.00;141165.63;106718;1267;25382;-61
2024/02/22 03:53:01;;;;;;;28.50;17.00;;;;;;;-4.56;100.00;141169.08;106750;1264;25440;-69
2024/02/22 03:55:47;;;;;;;27.50;17.70;;;;;;;-4.56;100.00;141169.09;106712;1267;25415;-63
2024/02/22 03:58:33;;;;;;;28.20;17.90;;;;;;;-4.55;100.00;141172.80;106742;1268;25421;-68
2024/02/22 04:01:19;;;;;;;30.50;17.70;;;;;;;-4.53;100.00;141176.77;106688;1266;25555;-65
2024/02/22 04:04:06;;;;;;;25.90;15.90;;;;;;;-4.52;100.00;141179.97;106722;1269;25437;-69
2024/02/22 04:06:52;;;;;;;27.10;16.80;;;;;;;-4.47;100.00;141190.39;106749;1268;25476;-68
2024/02/22 04:09:38;;;;;;;27.50;17.60;;;;;;;-4.43;100.00;141200.53;106775;1265;25367;-69
2024/02/22 04:12:23;;;;;;;36.80;19.30;;;;;;;-4.39;100.00;141210.42;106740;1268;25405;-63
2024/02/22 04:15:09;;;;;;;28.70;18.90;;;;;;;-4.38;100.00;141213.14;106763;1275;25491;-65
2024/02/22 04:17:54;;;;;;;27.40;17.60;;;;;;;-4.37;100.00;141214.89;106742;1268;25361;-67
2024/02/22 04:20:40;;;;;;;27.60;18.40;;;;;;;-4.31;100.00;141229.03;106734;1269;25341;-66
2024/02/22 04:23:26;;;;;;;26.20;17.50;;;;;;;-4.26;100.00;141242.89;106725;1273;25523;-68
2024/02/22 04:26:11;;;;;;;33.20;20.20;;;;;;;-4.21;100.00;141254.50;106882;1263;25368;-70
2024/02/22 04:28:57;;;;;;;28.40;18.80;;;;;;;-4.16;100.00;141266.41;106786;1268;25366;-68
2024/02/22 04:31:47;;;;;;;31.00;19.10;;;;;;;-4.16;100.00;141268.13;106754;1266;25353;-67
2024/02/22 04:34:32;;;;;;;27.40;17.60;;;;;;;-4.14;100.00;141270.34;106611;1268;25331;-68
2024/02/22 04:37:18;;;;;;;30.60;18.90;;;;;;;-4.12;100.00;141275.06;106653;1265;26627;-63
2024/02/22 04:40:07;;;;;;;29.50;18.90;;;;;;;-4.09;100.00;141282.48;106645;1267;26497;-61
2024/02/22 04:42:53;;;;;;;29.90;18.10;;;;;;;-4.04;100.00;141295.38;106642;1267;25513;-67
2024/02/22 04:45:39;;;;;;;32.60;19.10;;;;;;;-4.02;100.00;141301.33;106727;1269;25516;-64
2024/02/22 04:48:24;;;;;;;30.40;18.80;;;;;;;-4.08;100.00;141284.97;106527;1268;25417;-67
2024/02/22 04:51:10;;;;;;;32.20;19.70;;;;;;;-4.26;100.00;141242.13;106543;1269;25360;-65
2024/02/22 04:53:56;;;;;;;30.40;19.10;;;;;;;-4.42;100.00;141204.73;106534;1278;25334;-65
2024/02/22 04:56:42;;;;;;;31.90;19.70;;;;;;;-4.51;100.00;141180.97;106511;1268;25485;-65
2024/02/22 04:59:27;;;;;;;28.90;19.20;;;;;;;-4.54;100.00;141175.03;106725;1268;25409;-70
2024/02/22 05:02:14;;;;;;;34.80;20.00;;;;;;;-4.52;100.00;141177.53;106758;1268;25342;-67
2024/02/22 05:05:00;;;;;;;33.30;20.90;;;;;;;-4.56;100.00;141168.84;106464;1268;26599;-65
2024/02/22 05:07:46;;;;;;;33.50;21.10;;;;;;;-4.55;100.00;141172.30;106533;1275;25341;-69
2024/02/22 05:10:34;;;;;;;34.50;20.70;;;;;;;-4.53;100.00;141176.78;106467;1269;25343;-63
2024/02/22 05:13:21;;;;;;;32.80;20.90;;;;;;;-4.55;100.00;141172.31;106533;1269;25370;-67
2024/02/22 05:16:07;;;;;;;34.50;21.00;;;;;;;-4.52;100.00;141178.02;106919;1264;25493;-64
2024/02/22 05:18:52;;;;;;;34.00;21.90;;;;;;;-4.58;100.00;141165.63;106705;1265;24186;-66
2024/02/22 05:21:38;;;;;;;37.20;21.90;;;;;;;-4.71;100.00;141132.20;106834;1266;25339;-68
2024/02/22 05:24:25;;;;;;;39.40;23.10;;;;;;;-4.74;100.00;141126.52;106760;1269;25485;-68
2024/02/22 05:27:10;;;;;;;38.40;20.80;;;;;;;-4.76;100.00;141122.05;106778;1269;25488;-67
2024/02/22 05:29:56;;;;;;;34.30;21.10;;;;;;;-4.78;100.00;141117.38;106786;1269;22944;-69
2024/02/22 05:32:41;;;;;;;33.10;20.90;;;;;;;-4.77;100.00;141117.86;106921;1270;25356;-64
2024/02/22 05:35:27;;;;;;;35.20;22.30;;;;;;;-4.72;100.00;141130.48;106863;1268;24266;-69
2024/02/22 05:38:13;;;;;;;36.80;22.40;;;;;;;-4.66;100.00;141145.58;106733;1266;25536;-66
2024/02/22 05:40:59;;;;;;;33.10;21.00;;;;;;;-4.64;100.00;141152.25;106701;1269;25359;-67
2024/02/22 05:43:45;;;;;;;36.30;22.50;;;;;;;-4.61;100.00;141158.45;106699;1268;25328;-68
2024/02/22 05:46:33;;;;;;;34.90;22.80;;;;;;;-4.54;100.00;141173.78;106664;1269;25341;-67
2024/02/22 05:49:20;;;;;;;33.60;22.20;;;;;;;-4.51;100.00;141182.70;106755;1269;25522;-65
2024/02/22 05:52:06;;;;;;;36.20;22.40;;;;;;;-4.41;100.00;141205.47;106727;1269;25479;-72
2024/02/22 05:54:51;;;;;;;35.70;22.40;;;;;;;-4.33;100.00;141225.55;106755;1263;25349;-67
2024/02/22 05:57:37;;;;;;;34.70;22.10;;;;;;;-4.31;100.00;141230.73;106735;1264;25359;-69
2024/02/22 06:00:26;;;;;;;38.00;22.80;;;;;;;-4.31;100.00;141229.75;106743;1268;25491;-65
2024/02/22 06:03:11;;;;;;;32.20;20.60;;;;;;;-4.33;100.00;141226.05;106718;1266;25415;-66
2024/02/22 06:05:57;;;;;;;33.00;20.90;;;;;;;-4.34;100.00;141223.80;106714;1268;25357;-67
2024/02/22 06:08:43;;;;;;;31.80;20.80;;;;;;;-4.34;100.00;141221.59;106757;1271;25366;-66
2024/02/22 06:11:29;;;;;;;34.90;22.50;;;;;;;-4.34;100.00;141223.33;106739;1273;25369;-69
2024/02/22 06:14:15;;;;;;;36.10;23.00;;;;;;;-4.37;100.00;141216.39;106729;1269;25418;-69
2024/02/22 06:17:00;;;;;;;35.20;22.90;;;;;;;-4.41;100.00;141207.45;106707;1266;25359;-66
2024/02/22 06:19:47;;;;;;;38.10;24.60;;;;;;;-4.39;100.00;141211.92;106739;1266;25396;-66
2024/02/22 06:22:34;;;;;;;40.80;23.00;;;;;;;-4.30;100.00;141232.72;106745;1269;25367;-70
2024/02/22 06:25:20;;;;;;;40.60;23.00;;;;;;;-4.22;100.00;141252.53;106720;1269;25366;-69
2024/02/22 06:28:09;;;;;;;36.40;24.30;;;;;;;-4.14;100.00;141271.59;106744;1266;25328;-67
2024/02/22 06:30:55;;;;;;;38.20;23.60;;;;;;;-4.11;100.00;141278.03;106750;1275;25555;-67
2024/02/22 06:33:41;;;;;;;39.60;25.10;;;;;;;-4.09;100.00;141281.75;106727;1259;25435;-69
2024/02/22 06:36:27;;;;;;;37.90;22.70;;;;;;;-4.17;100.00;141265.41;106727;1259;25404;-69
2024/02/22 06:39:13;;;;;;;40.80;24.60;;;;;;;-4.13;100.00;141273.09;106731;1260;25458;-69
2024/02/22 06:41:58;;;;;;;38.10;23.70;;;;;;;-4.12;100.00;141276.78;106727;1277;25491;-68
2024/02/22 06:44:45;;;;;;;38.50;24.70;;;;;;;-4.13;100.00;141274.33;106740;1266;25360;-72
2024/02/22 06:47:32;;;;;;;39.80;22.60;;;;;;;-4.05;100.00;141293.13;106708;1268;25331;-68
2024/02/22 06:50:19;;;;;;;38.80;23.50;;;;;;;-4.01;100.00;141302.80;106707;1269;25407;-72
2024/02/22 06:53:06;;;;;;;42.80;25.30;;;;;;;-3.95;100.00;141316.17;106675;1266;25633;-71
2024/02/22 06:55:52;;;;;;;40.70;26.40;;;;;;;-3.89;100.00;141332.02;106694;1268;25341;-66
2024/02/22 06:58:37;;;;;;;44.70;26.20;;;;;;;-3.81;100.00;141351.09;106724;1266;25359;-68
2024/02/22 07:01:24;;;;;;;43.00;28.40;;;;;;;-3.71;100.00;141374.63;106713;1269;25342;-68
2024/02/22 07:04:09;;;;;;;39.60;23.90;;;;;;;-3.63;100.00;141393.95;106725;1268;25322;-67
2024/02/22 07:06:57;;;;;;;39.20;25.20;;;;;;;-3.64;100.00;141391.97;106532;1268;25334;-71
2024/02/22 07:09:42;;;;;;;41.10;26.60;;;;;;;-3.58;100.00;141407.09;106775;1274;25342;-70
2024/02/22 07:12:28;;;;;;;37.80;24.40;;;;;;;-3.45;100.00;141437.33;106754;1269;25359;-68
2024/02/22 07:15:16;;;;;;;44.70;26.60;;;;;;;-3.33;100.00;141468.55;106701;1259;25331;-67
2024/02/22 07:18:02;;;;;;;42.50;27.60;;;;;;;-3.26;100.00;141484.16;106740;1269;25350;-70
2024/02/22 07:20:47;;;;;;;40.90;26.90;;;;;;;-3.26;100.00;141485.41;106736;1269;25551;-68
2024/02/22 07:23:33;;;;;;;41.10;27.60;;;;;;;-3.30;100.00;141476.23;106747;1277;25499;-70
2024/02/22 07:26:19;;;;;;;41.10;27.30;;;;;;;-3.22;100.00;141492.34;106754;1277;25321;-68
2024/02/22 07:29:05;;;;;;;42.50;26.60;;;;;;;-3.12;100.00;141519.34;106750;1269;25351;-69
2024/02/22 07:31:56;;;;;;;45.20;28.10;;;;;;;-3.01;100.00;141545.64;106778;1259;25345;-70
2024/02/22 07:34:41;;;;;;;42.50;26.90;;;;;;;-2.93;100.00;141564.72;106748;1260;25356;-69
2024/02/22 07:37:28;;;;;;;39.90;25.80;;;;;;;-2.85;100.00;141584.55;106717;1259;25452;-69
2024/02/22 07:40:13;;;;;;;42.60;26.10;;;;;;;-2.88;100.00;141575.38;106736;1277;25565;-69
2024/02/22 07:43:00;;;;;;;40.50;26.70;;;;;;;-2.83;100.00;141587.77;106744;1277;25382;-65
2024/02/22 07:45:45;;;;;;;42.00;28.60;;;;;;;-2.72;100.00;141614.81;106728;1259;25357;-67
2024/02/22 07:48:31;;;;;;;42.50;27.80;;;;;;;-2.57;100.00;141651.78;106753;1277;25476;-71
2024/02/22 07:51:18;;;;;;;46.90;28.20;;;;;;;-2.32;100.00;141711.28;106756;1259;25465;-70
2024/02/22 07:54:04;;;;;;;47.70;27.90;;;;;;;-2.15;100.00;141754.20;106840;1259;25516;-69
2024/02/22 07:56:49;;;;;;;42.20;27.70;;;;;;;-1.98;100.00;141793.66;106842;1259;25443;-67
2024/02/22 07:59:35;;;;;;;41.00;26.00;;;;;;;-1.90;100.00;141814.25;106954;1269;25370;-71
2024/02/22 08:02:21;;;;;;;42.00;26.90;;;;;;;-1.90;100.00;141813.02;106766;1270;25562;-65
2024/02/22 08:05:07;;;;;;;41.00;27.70;;;;;;;-2.02;100.00;141786.20;107366;1264;22518;-68
2024/02/22 08:07:53;;;;;;;54.90;29.70;;;;;;;-1.96;100.00;141799.86;106904;1263;25456;-64
2024/02/22 08:10:39;;;;;;;43.60;28.80;;;;;;;-1.91;100.00;141811.28;107091;1269;25587;-72
2024/02/22 08:13:24;;;;;;;50.10;26.40;;;;;;;-1.88;100.00;141818.22;106589;1266;25324;-70
2024/02/22 08:16:11;;;;;;;42.80;26.80;;;;;;;-1.88;100.00;141818.70;106577;1277;25574;-66
2024/02/22 08:18:56;;;;;;;46.90;27.50;;;;;;;-1.74;100.00;141853.22;106695;1277;25342;-70
2024/02/22 08:21:42;;;;;;;44.20;27.70;;;;;;;-1.37;100.00;141941.34;106592;1269;25366;-69
2024/02/22 08:24:28;;;;;;;43.00;27.90;;;;;;;-0.94;100.00;142046.88;106524;1277;25366;-68
2024/02/22 08:27:14;;;;;;;41.30;26.90;;;;;;;-0.75;100.00;142093.33;106594;1267;25331;-67
2024/02/22 08:30:00;;;;;;;41.80;27.30;;;;;;;-0.64;100.00;142118.66;106581;1267;25413;-75
2024/02/22 08:32:46;;;;;;;38.10;26.30;;;;;;;-0.72;100.00;142100.53;106607;1259;25497;-67
2024/02/22 08:35:32;;;;;;;39.80;26.80;;;;;;;-0.63;100.00;142123.14;106618;1259;25491;-72
2024/02/22 08:38:18;;;;;;;46.30;28.10;;;;;;;-0.43;100.00;142171.09;106609;1260;25398;-70
2024/02/22 08:41:05;;;;;;;44.80;28.00;;;;;;;-0.28;100.00;142206.39;106642;1259;25363;-69
2024/02/22 08:43:53;;;;;;;44.90;30.50;;;;;;;-0.24;100.00;142217.33;106566;1259;25388;-71
2024/02/22 08:46:40;;;;;;;43.10;28.40;;;;;;;-0.29;100.00;142206.14;106589;1277;25377;-70
2024/02/22 08:49:26;;;;;;;47.40;28.70;;;;;;;-0.49;100.00;142156.19;106590;1256;25517;-68
2024/02/22 08:52:12;;;;;;;43.20;27.00;;;;;;;-0.52;100.00;142148.22;106620;1260;25410;-75
2024/02/22 08:54:57;;;;;;;48.10;28.80;;;;;;;-0.38;100.00;142183.53;106664;1269;25365;-69
2024/02/22 08:57:43;;;;;;;44.30;29.80;;;;;;;-0.03;100.00;142268.03;106793;1260;25389;-74
2024/02/22 09:00:38;;;;;;;45.20;28.10;;;;;;;0.35;100.00;142359.53;106825;1262;25325;-67
2024/02/22 09:03:26;;;;;;;43.40;28.40;;;;;;;0.70;100.00;142446.08;106398;1262;23946;-69
2024/02/22 09:06:12;;;;;;;41.90;28.50;;;;;;;1.21;100.00;142567.73;106278;1281;24197;-72
2024/02/22 09:09:00;;;;;;;43.50;29.10;;;;;;;1.48;100.00;142633.95;106344;1271;25365;-66
2024/02/22 09:11:48;;;;;;;42.20;26.80;;;;;;;1.69;100.00;142685.72;106444;1263;25488;-71
2024/02/22 09:14:35;;;;;;;39.40;27.60;;;;;;;2.04;100.00;142771.63;106408;1265;25406;-69
2024/02/22 09:17:24;;;;;;;44.00;27.90;;;;;;;2.07;100.00;142777.86;106689;1278;25433;-67
2024/02/22 09:20:12;;;;;;;41.60;27.30;;;;;;;1.69;100.00;142685.47;106466;1263;25337;-71
2024/02/22 09:22:58;;;;;;;40.40;26.70;;;;;;;1.62;100.00;142667.56;106499;1266;25530;-72
2024/02/22 09:25:44;;;;;;;41.80;27.80;;;;;;;1.41;100.00;142618.03;107293;1262;22544;-72
2024/02/22 09:28:30;;;;;;;39.30;28.80;;;;;;;1.40;100.00;142614.02;106713;1263;25363;-67
2024/02/22 09:31:17;;;;;;;41.50;27.90;;;;;;;1.65;100.00;142675.27;106455;1270;25315;-73
2024/02/22 09:34:04;;;;;;;37.90;25.70;;;;;;;1.85;100.00;142726.31;106511;1263;25359;-69
2024/02/22 09:36:50;;;;;;;44.20;26.60;;;;;;;2.00;100.00;142760.42;106617;1264;25418;-67
2024/02/22 09:39:35;;;;;;;39.10;25.90;;;;;;;2.02;100.00;142766.66;106447;1277;25478;-72
2024/02/22 09:42:27;;;;;;;39.80;26.70;;;;;;;2.11;100.00;142789.06;106694;1266;25335;-68
2024/02/22 09:45:13;;;;;;;39.20;28.60;;;;;;;2.25;100.00;142822.42;106683;1266;25534;-68
2024/02/22 09:48:00;;;;;;;39.50;27.40;;;;;;;2.19;100.00;142807.75;106590;1277;25331;-72
2024/02/22 09:50:48;;;;;;;40.30;27.30;;;;;;;2.32;100.00;142838.88;106575;1277;25350;-71
2024/02/22 09:53:36;;;;;;;40.60;27.00;;;;;;;2.47;100.00;142874.00;106556;1277;25491;-65
2024/02/22 09:56:24;;;;;;;39.20;26.70;;;;;;;2.44;100.00;142868.25;106523;1277;25420;-68
2024/02/22 09:59:13;;;;;;;39.20;27.40;;;;;;;2.30;100.00;142833.89;106521;1277;25353;-70
2024/02/22 10:02:05;;;;;;;41.60;28.60;;;;;;;2.24;100.00;142819.20;106590;1277;25494;-69
2024/02/22 10:04:53;;;;;;;41.20;26.20;;;;;;;2.26;100.00;142825.17;106628;1264;25373;-68
2024/02/22 10:07:40;;;;;;;38.90;25.10;;;;;;;2.30;100.00;142835.16;106621;1263;25331;-68
2024/02/22 10:10:25;;;;;;;34.40;24.30;;;;;;;2.43;100.00;142866.28;106535;1270;25408;-64
2024/02/22 10:13:21;;;;;;;36.20;24.90;;;;;;;2.60;100.00;142905.91;107871;1260;22980;-65
2024/02/22 10:16:12;;;;;;;36.60;23.60;;;;;;;2.63;100.00;142915.14;107660;1274;22534;-68
2024/02/22 10:19:00;;;;;;;33.10;21.50;;;;;;;2.51;100.00;142885.47;106587;1266;25402;-65
2024/02/22 10:21:46;;;;;;;33.80;23.30;;;;;;;2.33;100.00;142841.38;106541;1268;25376;-64
2024/02/22 10:24:32;;;;;;;35.60;23.30;;;;;;;2.29;100.00;142831.16;106612;1270;25369;-68
2024/02/22 10:27:24;;;;;;;35.20;23.30;;;;;;;2.36;100.00;142849.58;106664;1275;25331;-69
2024/02/22 10:30:12;;;;;;;36.90;25.70;;;;;;;2.31;100.00;142838.13;106607;1264;25480;-68
2024/02/22 10:33:02;;;;;;;38.80;23.50;;;;;;;2.35;100.00;142847.34;106544;1267;25418;-68
2024/02/22 10:35:48;;;;;;;33.40;23.90;;;;;;;2.16;100.00;142801.53;106563;1266;25351;-65
2024/02/22 10:38:34;;;;;;;36.70;23.00;;;;;;;1.74;100.00;142697.17;106559;1277;25372;-72
2024/02/22 10:41:22;;;;;;;33.70;21.90;;;;;;;1.73;100.00;142695.92;106545;1277;25453;-70
2024/02/22 10:44:08;;;;;;;34.20;23.10;;;;;;;1.74;100.00;142698.67;106619;1278;25386;-69
2024/02/22 10:46:54;;;;;;;35.40;24.10;;;;;;;1.77;100.00;142704.91;106631;1259;25453;-67
2024/02/22 10:49:42;;;;;;;35.50;22.80;;;;;;;1.91;100.00;142738.52;106591;1273;25366;-70
2024/02/22 10:52:30;;;;;;;35.80;23.40;;;;;;;2.12;100.00;142789.33;106622;1260;22647;-73
2024/02/22 10:55:17;;;;;;;32.80;23.20;;;;;;;2.25;100.00;142822.67;106727;1266;26098;-70
2024/02/22 10:58:04;;;;;;;33.20;23.30;;;;;;;2.26;100.00;142825.67;106509;1259;25353;-66
2024/02/22 11:00:52;;;;;;;32.50;22.00;;;;;;;2.09;100.00;142782.83;106456;1268;25331;-69
2024/02/22 11:03:38;;;;;;;30.50;21.30;;;;;;;1.81;100.00;142715.84;106470;1260;25353;-68
2024/02/22 11:06:24;;;;;;;33.10;21.70;;;;;;;1.65;100.00;142675.53;106528;1267;25352;-64
2024/02/22 11:09:18;;;;;;;34.20;21.50;;;;;;;1.65;100.00;142675.78;106519;1261;24221;-70
2024/02/22 11:12:06;;;;;;;32.30;21.10;;;;;;;1.73;92.30;142694.95;106635;1268;25411;-71
2024/02/22 11:14:51;;;;;;;32.00;20.20;;;;;;;1.83;88.61;142719.34;106615;1268;24068;-66
2024/02/22 11:17:39;;;;;;;34.60;21.50;;;;;;;1.91;87.54;142739.75;106610;1268;25684;-69
2024/02/22 11:20:34;;;;;;;31.40;21.00;;;;;;;1.97;88.01;142753.72;106573;1260;22652;-70
2024/02/22 11:23:22;;;;;;;34.60;23.00;;;;;;;2.07;87.65;142777.34;106540;1269;25321;-69
2024/02/22 11:26:08;;;;;;;32.70;22.60;;;;;;;2.23;87.35;142816.72;106543;1260;25321;-68
2024/02/22 11:28:54;;;;;;;32.70;21.30;;;;;;;2.31;86.13;142836.64;106527;1277;25383;-67
2024/02/22 11:31:40;;;;;;;29.80;20.00;;;;;;;2.34;85.72;142844.63;106467;1277;26634;-70
2024/02/22 11:34:27;;;;;;;34.30;20.00;;;;;;;2.52;85.22;142887.95;106479;1277;25475;-69
2024/02/22 11:37:18;;;;;;;28.60;19.60;;;;;;;2.62;83.36;142913.13;106412;1267;25343;-68
2024/02/22 11:40:09;;;;;;;28.10;18.30;;;;;;;2.50;81.90;142881.95;106558;1260;26174;-68
2024/02/22 11:42:56;;;;;;;29.00;17.90;;;;;;;2.31;82.68;142837.14;106550;1275;25303;-69
2024/02/22 11:45:42;;;;;;;31.50;20.10;;;;;;;2.09;84.32;142781.58;106565;1277;25471;-69
2024/02/22 11:48:28;;;;;;;31.20;21.50;;;;;;;1.80;86.50;142713.61;106866;1267;25482;-69
2024/02/22 11:51:14;;;;;;;32.90;21.80;;;;;;;1.62;87.66;142668.30;106581;1277;24314;-67
2024/02/22 11:54:00;;;;;;;32.00;21.20;;;;;;;1.64;88.83;142674.03;106603;1269;25392;-69
2024/02/22 11:56:47;;;;;;;35.60;22.10;;;;;;;1.72;88.07;142693.20;106590;1261;24234;-66
2024/02/22 11:59:34;;;;;;;31.60;21.90;;;;;;;1.77;88.13;142704.66;106601;1266;25322;-71
2024/02/22 12:02:21;;;;;;;37.00;23.80;;;;;;;1.89;88.18;142733.30;106616;1260;25381;-66
2024/02/22 12:05:09;;;;;;;33.60;22.20;;;;;;;2.13;86.96;142792.80;107472;1261;25362;-70
2024/02/22 12:07:55;;;;;;;40.50;24.00;;;;;;;2.17;86.66;142803.50;107320;1270;24256;-66
2024/02/22 12:10:41;;;;;;;30.60;20.80;;;;;;;2.17;86.36;142803.27;106541;1277;25418;-69
2024/02/22 12:13:28;;;;;;;31.20;20.70;;;;;;;2.23;83.75;142816.72;106572;1260;25401;-66
2024/02/22 12:16:15;;;;;;;27.90;19.40;;;;;;;2.30;81.88;142833.91;106595;1277;25334;-68
2024/02/22 12:19:00;;;;;;;26.90;19.20;;;;;;;2.24;82.00;142818.72;106623;1278;25360;-68
2024/02/22 12:21:47;;;;;;;31.30;19.70;;;;;;;2.40;81.48;142858.05;106589;1277;25479;-69
2024/02/22 12:24:34;;;;;;;29.70;19.10;;;;;;;2.60;80.35;142907.66;106600;1258;25405;-69